createdAt,value
2023-05-22T00:02:11.183Z,100078.88
2023-05-22T00:04:40.016Z,100084.59
2023-05-22T00:07:09.706Z,100081.53
2023-05-22T00:09:38.203Z,100076.34
2023-05-22T00:12:07.506Z,100074.00
2023-05-22T00:14:35.593Z,100075.94
2023-05-22T00:17:04.573Z,100073.75
2023-05-22T00:19:33.118Z,100072.28
2023-05-22T00:22:01.298Z,100061.84
2023-05-22T00:24:31.968Z,100065.97
2023-05-22T00:27:00.554Z,100068.28
2023-05-22T00:29:28.958Z,100061.84
2023-05-22T00:31:58.833Z,100061.97
2023-05-22T00:34:27.508Z,100064.03
2023-05-22T00:36:55.865Z,100065.97
2023-05-22T00:39:24.184Z,100056.25
2023-05-22T00:41:55.167Z,100054.66
2023-05-22T00:44:25.103Z,100062.91
2023-05-22T00:46:53.734Z,100064.00
2023-05-22T00:49:24.167Z,100063.63
2023-05-22T00:51:52.364Z,100062.88
2023-05-22T00:54:20.668Z,100059.50
2023-05-22T00:56:49.727Z,100064.44
2023-05-22T00:59:20.974Z,100069.03
2023-05-22T01:01:50.325Z,100063.31
2023-05-22T01:04:19.212Z,100060.47
2023-05-22T01:06:50.092Z,100064.34
2023-05-22T01:09:18.534Z,100068.22
2023-05-22T01:11:59.754Z,100067.09
2023-05-22T01:14:37.684Z,100066.69
2023-05-22T01:17:13.802Z,100068.63
2023-05-22T01:20:01.611Z,100064.50
2023-05-22T01:22:50.033Z,100065.97
2023-05-22T01:25:37.255Z,100065.81
2023-05-22T01:28:31.457Z,100059.84
2023-05-22T01:31:03.621Z,100063.81
2023-05-22T01:33:35.144Z,100073.19
2023-05-22T01:36:04.667Z,100068.16
2023-05-22T01:38:35.180Z,100074.19
2023-05-22T01:41:03.956Z,100078.06
2023-05-22T01:43:32.856Z,100078.25
2023-05-22T01:46:03.801Z,100081.84
2023-05-22T01:48:33.133Z,100084.25
2023-05-22T01:51:08.776Z,100088.66
2023-05-22T01:53:45.051Z,100085.72
2023-05-22T01:56:16.481Z,100086.63
2023-05-22T01:58:52.772Z,100084.75
2023-05-22T02:01:25.452Z,100083.31
2023-05-22T02:03:58.616Z,100086.56
2023-05-22T02:06:29.914Z,100086.88
2023-05-22T02:08:58.655Z,100081.75
2023-05-22T02:11:29.515Z,100089.41
2023-05-22T02:13:58.412Z,100082.81
2023-05-22T02:16:28.856Z,100086.31
2023-05-22T02:19:06.335Z,100085.59
2023-05-22T02:21:35.750Z,100086.31
2023-05-22T02:24:04.995Z,100092.19
2023-05-22T02:26:33.189Z,100092.19
2023-05-22T02:29:02.520Z,100089.50
2023-05-22T02:31:33.636Z,100089.81
2023-05-22T02:34:05.452Z,100094.66
2023-05-22T02:36:34.432Z,100099.94
2023-05-22T02:39:03.079Z,100089.25
2023-05-22T02:41:31.913Z,100095.75
2023-05-22T02:44:00.049Z,100100.88
2023-05-22T02:46:28.426Z,100105.59
2023-05-22T02:48:57.966Z,100101.78
2023-05-22T02:51:26.254Z,100098.00
2023-05-22T02:53:54.496Z,100101.09
2023-05-22T02:56:24.331Z,100095.41
2023-05-22T02:58:52.346Z,100103.75
2023-05-22T03:01:21.828Z,100104.66
2023-05-22T03:03:50.818Z,100108.47
2023-05-22T03:06:21.569Z,100109.06
2023-05-22T03:08:49.770Z,100107.47
2023-05-22T03:11:18.355Z,100110.09
2023-05-22T03:13:46.952Z,100109.22
2023-05-22T03:16:15.666Z,100110.41
2023-05-22T03:18:46.747Z,100113.63
2023-05-22T03:21:16.254Z,100114.34
2023-05-22T03:23:46.580Z,100105.56
2023-05-22T03:26:15.160Z,100105.56
2023-05-22T03:28:43.596Z,100105.56
2023-05-22T03:31:13.349Z,100106.88
2023-05-22T03:33:57.476Z,100113.50
2023-05-22T03:36:26.251Z,100123.19
2023-05-22T03:38:56.742Z,100116.72
2023-05-22T03:41:25.478Z,100125.09
2023-05-22T03:43:53.883Z,100124.94
2023-05-22T03:46:23.561Z,100123.63
2023-05-22T03:48:52.358Z,100118.78
2023-05-22T03:51:20.593Z,100124.38
2023-05-22T03:53:50.747Z,100121.72
2023-05-22T03:56:21.079Z,100127.56
2023-05-22T03:58:50.546Z,100134.03
2023-05-22T04:01:18.846Z,100131.53
2023-05-22T04:03:47.423Z,100137.41
2023-05-22T04:06:15.981Z,100135.03
2023-05-22T04:08:44.504Z,100138.84
2023-05-22T04:11:15.693Z,100143.41
2023-05-22T04:13:46.677Z,100143.09
2023-05-22T04:16:17.498Z,100135.75
2023-05-22T04:18:48.773Z,100144.56
2023-05-22T04:21:17.576Z,100140.56
2023-05-22T04:23:47.944Z,100147.31
2023-05-22T04:26:18.073Z,100145.81
2023-05-22T04:28:47.699Z,100146.50
2023-05-22T04:31:16.302Z,100154.56
2023-05-22T04:33:48.235Z,100146.78
2023-05-22T04:36:17.672Z,100152.31
2023-05-22T04:38:47.584Z,100154.94
2023-05-22T04:41:18.167Z,100162.09
2023-05-22T04:43:48.465Z,100157.28
2023-05-22T04:46:17.160Z,100156.69
2023-05-22T04:48:47.430Z,100154.19
2023-05-22T04:51:17.517Z,100153.72
2023-05-22T04:53:49.780Z,100157.78
2023-05-22T04:56:31.833Z,100154.94
2023-05-22T04:59:09.583Z,100153.13
2023-05-22T05:01:39.889Z,100148.56
2023-05-22T05:04:08.311Z,100143.19
2023-05-22T05:06:38.054Z,100155.75
2023-05-22T05:09:07.025Z,100155.28
2023-05-22T05:11:38.231Z,100154.22
2023-05-22T05:14:16.286Z,100155.75
2023-05-22T05:16:48.200Z,100153.25
2023-05-22T05:19:33.193Z,100166.06
2023-05-22T05:22:07.464Z,100158.25
2023-05-22T05:24:36.265Z,100161.91
2023-05-22T05:27:05.154Z,100157.06
2023-05-22T05:29:35.044Z,100156.38
2023-05-22T05:32:15.290Z,100155.28
2023-05-22T05:34:58.865Z,100148.72
2023-05-22T05:37:43.706Z,100154.94
2023-05-22T05:40:14.637Z,100155.91
2023-05-22T05:42:48.148Z,100159.44
2023-05-22T05:45:20.418Z,100158.59
2023-05-22T05:47:48.457Z,100156.88
2023-05-22T05:50:17.655Z,100153.19
2023-05-22T05:52:47.803Z,100165.47
2023-05-22T05:55:23.358Z,100156.63
2023-05-22T05:57:52.497Z,100166.56
2023-05-22T06:00:29.120Z,100166.84
2023-05-22T06:02:59.964Z,100167.09
2023-05-22T06:05:51.519Z,100165.91
2023-05-22T06:08:26.082Z,100164.63
2023-05-22T06:10:54.657Z,100169.91
2023-05-22T06:13:39.814Z,100172.09
2023-05-22T06:16:09.759Z,100183.16
2023-05-22T06:18:38.263Z,100177.69
2023-05-22T06:21:07.246Z,100175.66
2023-05-22T06:23:38.108Z,100178.13
2023-05-22T06:26:06.793Z,100186.00
2023-05-22T06:28:39.653Z,100178.94
2023-05-22T06:31:09.963Z,100179.84
2023-05-22T06:33:44.201Z,100178.41
2023-05-22T06:36:12.730Z,100185.66
2023-05-22T06:38:42.487Z,100174.88
2023-05-22T06:41:23.877Z,100176.13
2023-05-22T06:43:52.338Z,100182.59
2023-05-22T06:46:29.983Z,100181.31
2023-05-22T06:49:07.635Z,100177.50
2023-05-22T06:51:52.021Z,100177.16
2023-05-22T06:54:21.561Z,100171.78
2023-05-22T06:56:53.269Z,100182.81
2023-05-22T06:59:22.143Z,100184.75
2023-05-22T07:01:51.979Z,100187.44
2023-05-22T07:04:28.216Z,100189.31
2023-05-22T07:07:02.483Z,100186.56
2023-05-22T07:09:31.226Z,100187.50
2023-05-22T07:11:59.827Z,100182.34
2023-05-22T07:14:29.236Z,100196.84
2023-05-22T07:16:59.154Z,100194.69
2023-05-22T07:19:32.252Z,100200.88
2023-05-22T07:22:04.331Z,100203.38
2023-05-22T07:24:36.013Z,100209.81
2023-05-22T07:27:05.895Z,100205.25
2023-05-22T07:29:35.484Z,100204.75
2023-05-22T07:32:07.459Z,100202.91
2023-05-22T07:34:37.345Z,100210.50
2023-05-22T07:37:09.606Z,100205.91
2023-05-22T07:39:38.925Z,100209.53
2023-05-22T07:42:08.816Z,100203.63
2023-05-22T07:44:44.044Z,100207.25
2023-05-22T07:47:16.434Z,100214.22
2023-05-22T07:49:45.119Z,100213.56
2023-05-22T07:52:13.549Z,100216.66
2023-05-22T07:54:43.485Z,100216.53
2023-05-22T07:57:14.115Z,100218.97
2023-05-22T07:59:44.197Z,100215.97
2023-05-22T08:02:14.821Z,100228.16
2023-05-22T08:04:44.869Z,100221.41
2023-05-22T08:07:13.730Z,100232.81
2023-05-22T08:09:41.985Z,100231.31
2023-05-22T08:12:10.920Z,100228.41
2023-05-22T08:14:40.221Z,100229.50
2023-05-22T08:17:08.836Z,100221.66
2023-05-22T08:19:37.288Z,100226.63
2023-05-22T08:22:07.519Z,100230.16
2023-05-22T08:24:35.952Z,100223.22
2023-05-22T08:27:05.753Z,100228.38
2023-05-22T08:29:34.313Z,100225.25
2023-05-22T08:32:02.653Z,100217.81
2023-05-22T08:34:32.477Z,100228.00
2023-05-22T08:37:01.200Z,100225.09
2023-05-22T08:39:31.352Z,100221.16
2023-05-22T08:42:00.838Z,100224.97
2023-05-22T08:44:29.304Z,100225.25
2023-05-22T08:46:59.671Z,100228.53
2023-05-22T08:49:29.254Z,100222.75
2023-05-22T08:52:04.349Z,100220.06
2023-05-22T08:54:37.861Z,100215.97
2023-05-22T08:57:08.135Z,100213.25
2023-05-22T08:59:37.145Z,100202.66
2023-05-22T09:02:06.908Z,100206.88
2023-05-22T09:04:36.531Z,100203.31
2023-05-22T09:07:06.653Z,100205.13
2023-05-22T09:09:39.019Z,100206.47
2023-05-22T09:12:10.504Z,100207.00
2023-05-22T09:14:42.151Z,100206.22
2023-05-22T09:17:16.312Z,100208.44
2023-05-22T09:19:46.961Z,100203.19
2023-05-22T09:22:16.846Z,100206.13
2023-05-22T09:24:47.488Z,100204.28
2023-05-22T09:27:15.920Z,100203.28
2023-05-22T09:29:50.922Z,100199.09
2023-05-22T09:32:20.469Z,100198.19
2023-05-22T09:34:48.865Z,100197.53
2023-05-22T09:37:18.201Z,100197.41
2023-05-22T09:39:51.639Z,100193.28
2023-05-22T09:42:20.900Z,100196.88
2023-05-22T09:44:50.132Z,100196.16
2023-05-22T09:47:19.226Z,100207.88
2023-05-22T09:49:47.995Z,100189.28
2023-05-22T09:52:19.218Z,100199.72
2023-05-22T09:54:55.496Z,100198.94
2023-05-22T09:57:26.669Z,100197.13
2023-05-22T09:59:58.419Z,100191.78
2023-05-22T10:02:28.554Z,100199.13
2023-05-22T10:04:57.539Z,100195.09
2023-05-22T10:07:31.410Z,100185.16
2023-05-22T10:10:08.794Z,100183.38
2023-05-22T10:12:43.521Z,100186.47
2023-05-22T10:15:12.842Z,100181.09
2023-05-22T10:17:42.165Z,100178.81
2023-05-22T10:20:11.940Z,100177.41
2023-05-22T10:22:40.188Z,100176.19
2023-05-22T10:25:13.067Z,100181.50
2023-05-22T10:27:41.890Z,100175.28
2023-05-22T10:30:20.732Z,100162.03
2023-05-22T10:33:14.010Z,100167.66
2023-05-22T10:35:45.478Z,100166.75
2023-05-22T10:38:29.178Z,100172.38
2023-05-22T10:41:00.263Z,100171.19
2023-05-22T10:43:31.364Z,100165.31
2023-05-22T10:46:07.416Z,100158.94
2023-05-22T10:48:39.715Z,100171.97
2023-05-22T10:51:08.751Z,100157.38
2023-05-22T10:53:38.163Z,100153.22
2023-05-22T10:56:15.802Z,100153.34
2023-05-22T10:58:46.606Z,100150.50
2023-05-22T11:01:18.169Z,100146.91
2023-05-22T11:03:57.263Z,100151.84
2023-05-22T11:06:36.235Z,100140.38
2023-05-22T11:09:19.736Z,100140.47
2023-05-22T11:12:18.247Z,100148.28
2023-05-22T11:14:51.465Z,100141.09
2023-05-22T11:17:23.226Z,100141.19
2023-05-22T11:19:59.672Z,100139.66
2023-05-22T11:22:35.632Z,100126.16
2023-05-22T11:25:11.519Z,100121.84
2023-05-22T11:27:42.385Z,100126.16
2023-05-22T11:30:12.005Z,100126.16
2023-05-22T11:32:44.389Z,100128.28
2023-05-22T11:35:15.303Z,100127.53
2023-05-22T11:37:43.661Z,100132.56
2023-05-22T11:40:14.849Z,100126.06
2023-05-22T11:42:45.671Z,100116.47
2023-05-22T11:45:14.350Z,100115.75
2023-05-22T11:47:43.615Z,100110.56
2023-05-22T11:50:13.099Z,100110.69
2023-05-22T11:52:44.178Z,100106.63
2023-05-22T11:55:12.644Z,100108.53
2023-05-22T11:57:43.394Z,100105.44
2023-05-22T12:00:15.217Z,100097.13
2023-05-22T12:02:47.628Z,100098.22
2023-05-22T12:05:17.120Z,100099.13
2023-05-22T12:07:45.652Z,100092.91
2023-05-22T12:10:17.443Z,100090.78
2023-05-22T12:12:46.155Z,100084.59
2023-05-22T12:15:20.084Z,100086.31
2023-05-22T12:17:48.798Z,100094.72
2023-05-22T12:20:17.249Z,100084.63
2023-05-22T12:22:46.947Z,100079.25
2023-05-22T12:25:17.402Z,100077.44
2023-05-22T12:27:46.765Z,100069.34
2023-05-22T12:30:17.954Z,100068.19
2023-05-22T12:32:50.203Z,100067.97
2023-05-22T12:35:19.517Z,100064.00
2023-05-22T12:37:51.813Z,100067.28
2023-05-22T12:40:20.720Z,100058.50
2023-05-22T12:42:49.675Z,100055.78
2023-05-22T12:45:19.601Z,100067.41
2023-05-22T12:47:48.188Z,100058.84
2023-05-22T12:50:16.408Z,100065.84
2023-05-22T12:52:44.476Z,100052.06
2023-05-22T12:55:12.725Z,100061.44
2023-05-22T12:57:41.240Z,100048.50
2023-05-22T13:00:10.437Z,100055.97
2023-05-22T13:02:40.282Z,100056.84
2023-05-22T13:05:08.987Z,100058.31
2023-05-22T13:07:38.368Z,100057.00
2023-05-22T13:10:07.584Z,100057.19
2023-05-22T13:12:36.310Z,100058.75
2023-05-22T13:15:05.914Z,100051.25
2023-05-22T13:17:33.974Z,100042.69
2023-05-22T13:20:04.360Z,100047.69
2023-05-22T13:22:32.772Z,100046.19
2023-05-22T13:25:01.201Z,100048.16
2023-05-22T13:27:30.722Z,100044.34
2023-05-22T13:30:01.445Z,100031.03
2023-05-22T13:32:29.848Z,100038.63
2023-05-22T13:34:58.129Z,100038.91
2023-05-22T13:37:27.812Z,100030.19
2023-05-22T13:39:56.281Z,100036.91
2023-05-22T13:42:24.926Z,100028.97
2023-05-22T13:44:52.984Z,100023.63
2023-05-22T13:47:22.833Z,100023.53
2023-05-22T13:49:51.517Z,100028.69
2023-05-22T13:52:20.050Z,100025.94
2023-05-22T13:54:50.202Z,100028.47
2023-05-22T13:57:18.438Z,100035.72
2023-05-22T13:59:46.770Z,100033.91
2023-05-22T14:02:15.157Z,100027.47
2023-05-22T14:04:43.413Z,100029.53
2023-05-22T14:07:11.910Z,100030.06
2023-05-22T14:09:41.563Z,100012.22
2023-05-22T14:12:11.126Z,100009.47
2023-05-22T14:14:39.315Z,100001.13
2023-05-22T14:17:09.480Z,99996.25
2023-05-22T14:19:39.859Z,99996.38
2023-05-22T14:22:08.152Z,100000.66
2023-05-22T14:24:36.550Z,99998.50
2023-05-22T14:27:05.670Z,99997.22
2023-05-22T14:29:35.354Z,100005.88
2023-05-22T14:32:05.281Z,100005.75
2023-05-22T14:34:33.773Z,100011.47
2023-05-22T14:37:01.992Z,100012.91
2023-05-22T14:39:30.560Z,100009.97
2023-05-22T14:41:58.994Z,100007.19
2023-05-22T14:44:27.254Z,100004.94
2023-05-22T14:46:57.392Z,100009.31
2023-05-22T14:49:25.543Z,100009.31
2023-05-22T14:51:54.577Z,100000.00
2023-05-22T14:54:23.783Z,100003.66
2023-05-22T14:56:52.271Z,100000.84
2023-05-22T14:59:20.862Z,99991.56
2023-05-22T15:01:50.662Z,100005.16
2023-05-22T15:04:20.385Z,100005.88
2023-05-22T15:06:48.660Z,100006.56
2023-05-22T15:09:18.264Z,100003.00
2023-05-22T15:11:49.495Z,100008.72
2023-05-22T15:14:17.958Z,100007.22
2023-05-22T15:16:46.542Z,100003.75
2023-05-22T15:19:14.969Z,100000.84
2023-05-22T15:21:44.750Z,100006.59
2023-05-22T15:24:13.080Z,100012.31
2023-05-22T15:26:41.657Z,100011.53
2023-05-22T15:29:11.607Z,100017.19
2023-05-22T15:31:42.681Z,100024.78
2023-05-22T15:34:10.900Z,100015.41
2023-05-22T15:36:40.505Z,100020.41
2023-05-22T15:39:10.841Z,100024.63
2023-05-22T15:41:39.355Z,100025.16
2023-05-22T15:44:10.832Z,100024.38
2023-05-22T15:46:39.567Z,100023.66
2023-05-22T15:49:15.161Z,100023.75
2023-05-22T15:51:43.620Z,100037.63
2023-05-22T15:54:18.202Z,100029.22
2023-05-22T15:56:46.588Z,100029.53
2023-05-22T15:59:15.483Z,100018.50
2023-05-22T16:01:44.111Z,100017.44
2023-05-22T16:04:12.574Z,100016.44
2023-05-22T16:06:41.010Z,100004.09
2023-05-22T16:09:09.998Z,100013.00
2023-05-22T16:11:39.588Z,100019.31
2023-05-22T16:14:07.752Z,100019.13
2023-05-22T16:16:35.953Z,100023.09
2023-05-22T16:19:04.593Z,100028.03
2023-05-22T16:21:32.854Z,100035.50
2023-05-22T16:24:00.995Z,100041.84
2023-05-22T16:26:33.385Z,100043.72
2023-05-22T16:29:08.683Z,100052.06
2023-05-22T16:31:41.045Z,100045.97
2023-05-22T16:34:09.434Z,100043.53
2023-05-22T16:36:37.509Z,100050.50
2023-05-22T16:39:07.815Z,100055.63
2023-05-22T16:41:38.318Z,100058.41
2023-05-22T16:44:08.239Z,100066.19
2023-05-22T16:46:36.499Z,100085.06
2023-05-22T16:49:04.691Z,100079.09
2023-05-22T16:51:32.845Z,100082.94
2023-05-22T16:54:01.064Z,100089.34
2023-05-22T16:56:29.320Z,100092.13
2023-05-22T16:58:57.526Z,100102.91
2023-05-22T17:01:27.685Z,100110.47
2023-05-22T17:03:58.134Z,100112.06
2023-05-22T17:06:27.723Z,100117.66
2023-05-22T17:08:56.006Z,100117.13
2023-05-22T17:11:26.226Z,100132.28
2023-05-22T17:13:54.647Z,100132.34
2023-05-22T17:16:23.018Z,100134.75
2023-05-22T17:18:54.818Z,100143.16
2023-05-22T17:21:24.193Z,100137.53
2023-05-22T17:23:52.486Z,100134.63
2023-05-22T17:26:21.089Z,100132.53
2023-05-22T17:28:49.334Z,100129.38
2023-05-22T17:31:17.453Z,100139.97
2023-05-22T17:33:45.806Z,100143.53
2023-05-22T17:36:15.467Z,100147.81
2023-05-22T17:38:44.531Z,100151.41
2023-05-22T17:41:12.835Z,100157.22
2023-05-22T17:43:41.393Z,100169.31
2023-05-22T17:46:09.832Z,100169.53
2023-05-22T17:48:38.415Z,100165.25
2023-05-22T17:51:06.693Z,100148.97
2023-05-22T17:53:37.745Z,100149.03
2023-05-22T17:56:08.408Z,100154.69
2023-05-22T17:58:36.787Z,100154.78
2023-05-22T18:01:05.038Z,100153.31
2023-05-22T18:03:33.946Z,100149.19
2023-05-22T18:06:02.756Z,100152.88
2023-05-22T18:08:31.570Z,100151.50
2023-05-22T18:11:01.240Z,100154.09
2023-05-22T18:13:29.697Z,100161.28
2023-05-22T18:15:57.879Z,100151.25
2023-05-22T18:18:27.435Z,100146.63
2023-05-22T18:20:56.236Z,100153.69
2023-05-22T18:23:24.554Z,100157.66
2023-05-22T18:25:54.783Z,100159.34
2023-05-22T18:28:26.505Z,100157.94
2023-05-22T18:30:55.053Z,100156.13
2023-05-22T18:33:25.598Z,100155.41
2023-05-22T18:35:54.146Z,100148.00
2023-05-22T18:38:22.529Z,100147.03
2023-05-22T18:40:52.075Z,100136.16
2023-05-22T18:43:23.813Z,100138.91
2023-05-22T18:45:53.368Z,100133.31
2023-05-22T18:48:22.092Z,100136.72
2023-05-22T18:50:50.612Z,100136.13
2023-05-22T18:53:19.119Z,100125.94
2023-05-22T18:55:48.614Z,100129.97
2023-05-22T18:58:17.234Z,100133.38
2023-05-22T19:00:45.709Z,100127.13
2023-05-22T19:03:15.487Z,100136.22
2023-05-22T19:05:43.984Z,100134.91
2023-05-22T19:08:12.285Z,100141.22
2023-05-22T19:10:41.920Z,100134.66
2023-05-22T19:13:11.594Z,100136.41
2023-05-22T19:15:39.899Z,100130.78
2023-05-22T19:18:08.207Z,100133.16
2023-05-22T19:20:38.196Z,100129.63
2023-05-22T19:23:07.215Z,100117.63
2023-05-22T19:25:36.116Z,100120.00
2023-05-22T19:28:05.144Z,100122.78
2023-05-22T19:30:33.423Z,100126.69
2023-05-22T19:33:01.716Z,100127.59
2023-05-22T19:35:30.362Z,100140.94
2023-05-22T19:37:59.889Z,100143.88
2023-05-22T19:40:28.569Z,100142.59
2023-05-22T19:42:57.955Z,100154.25
2023-05-22T19:45:27.202Z,100161.88
2023-05-22T19:47:56.830Z,100163.25
2023-05-22T19:50:25.790Z,100162.97
2023-05-22T19:52:54.386Z,100161.28
2023-05-22T19:55:24.173Z,100154.44
2023-05-22T19:57:52.603Z,100154.06
2023-05-22T20:00:21.810Z,100162.59
2023-05-22T20:02:50.397Z,100170.63
2023-05-22T20:05:18.709Z,100171.25
2023-05-22T20:07:48.569Z,100178.31
2023-05-22T20:10:16.883Z,100178.53
2023-05-22T20:12:47.200Z,100186.97
2023-05-22T20:15:17.759Z,100203.00
2023-05-22T20:17:47.523Z,100206.97
2023-05-22T20:20:15.996Z,100211.66
2023-05-22T20:22:44.775Z,100212.72
2023-05-22T20:25:13.407Z,100211.78
2023-05-22T20:27:41.717Z,100213.84
2023-05-22T20:30:13.409Z,100216.66
2023-05-22T20:32:42.649Z,100210.22
2023-05-22T20:35:11.395Z,100228.13
2023-05-22T20:37:41.734Z,100230.38
2023-05-22T20:40:11.100Z,100231.28
2023-05-22T20:42:43.691Z,100222.44
2023-05-22T20:45:18.382Z,100235.31
2023-05-22T20:47:46.868Z,100225.31
2023-05-22T20:50:15.836Z,100234.88
2023-05-22T20:52:46.083Z,100235.19
2023-05-22T20:55:14.574Z,100233.63
2023-05-22T20:57:42.731Z,100241.09
2023-05-22T21:00:13.950Z,100247.91
2023-05-22T21:02:44.198Z,100252.59
2023-05-22T21:05:12.381Z,100257.97
2023-05-22T21:07:40.531Z,100265.22
2023-05-22T21:10:09.926Z,100271.09
2023-05-22T21:12:38.105Z,100266.22
2023-05-22T21:15:07.783Z,100275.72
2023-05-22T21:17:35.994Z,100276.69
2023-05-22T21:20:06.689Z,100278.59
2023-05-22T21:22:34.777Z,100272.88
2023-05-22T21:25:03.676Z,100273.34
2023-05-22T21:27:32.139Z,100276.56
2023-05-22T21:30:00.420Z,100279.03
2023-05-22T21:32:29.038Z,100280.03
2023-05-22T21:34:57.521Z,100280.78
2023-05-22T21:37:27.266Z,100284.22
2023-05-22T21:39:55.652Z,100278.25
2023-05-22T21:42:26.239Z,100275.72
2023-05-22T21:44:54.582Z,100288.69
2023-05-22T21:47:24.753Z,100287.69
2023-05-22T21:49:53.054Z,100294.16
2023-05-22T21:52:21.162Z,100304.53
2023-05-22T21:54:51.016Z,100307.00
2023-05-22T21:57:19.349Z,100305.63
2023-05-22T21:59:48.287Z,100304.53
2023-05-22T22:02:16.613Z,100302.09
2023-05-22T22:04:45.084Z,100304.66
2023-05-22T22:07:14.173Z,100305.28
2023-05-22T22:09:42.607Z,100309.28
2023-05-22T22:12:12.852Z,100312.56
2023-05-22T22:14:41.264Z,100317.94
2023-05-22T22:17:09.712Z,100309.03
2023-05-22T22:19:38.273Z,100314.25
2023-05-22T22:22:07.156Z,100321.03
2023-05-22T22:24:35.469Z,100319.59
2023-05-22T22:27:03.769Z,100322.41
2023-05-22T22:29:33.332Z,100317.38
2023-05-22T22:32:01.576Z,100314.59
2023-05-22T22:34:32.325Z,100317.63
2023-05-22T22:37:00.474Z,100315.44
2023-05-22T22:39:28.620Z,100314.31
2023-05-22T22:42:01.321Z,100322.00
2023-05-22T22:44:29.490Z,100317.97
2023-05-22T22:46:59.394Z,100324.91
2023-05-22T22:49:27.737Z,100327.59
2023-05-22T22:51:56.425Z,100335.59
2023-05-22T22:54:24.746Z,100337.41
2023-05-22T22:56:55.665Z,100341.44
2023-05-22T22:59:24.050Z,100338.50
2023-05-22T23:01:52.396Z,100340.56
2023-05-22T23:04:22.011Z,100347.97
2023-05-22T23:06:50.523Z,100349.31
2023-05-22T23:09:19.144Z,100347.13
2023-05-22T23:11:47.600Z,100339.22
2023-05-22T23:14:16.636Z,100340.53
2023-05-22T23:16:45.229Z,100346.75
2023-05-22T23:19:13.819Z,100344.81
2023-05-22T23:21:43.557Z,100337.59
2023-05-22T23:24:11.830Z,100342.81
2023-05-22T23:26:40.364Z,100347.41
2023-05-22T23:29:08.502Z,100356.88
2023-05-22T23:31:37.014Z,100356.75
2023-05-22T23:34:05.828Z,100347.91
2023-05-22T23:36:34.025Z,100352.63
2023-05-22T23:39:03.676Z,100355.16
2023-05-22T23:41:32.658Z,100350.28
2023-05-22T23:44:00.833Z,100356.75
2023-05-22T23:46:29.667Z,100353.09
2023-05-22T23:48:57.984Z,100360.16
2023-05-22T23:51:26.176Z,100364.00
2023-05-22T23:53:54.316Z,100369.22
2023-05-22T23:56:23.861Z,100370.41
2023-05-22T23:58:52.101Z,100373.81
